Time;durP1;ratioP1;P1;durP2;ratioP2;P2;SDS_P1;SDS_P2;PMS_P1;PMS_P2;Temp;Humidity;BMP_temperature;BMP_pressure;BME280_temperature;BME280_humidity;BME280_pressure;Samples;Min_cycle;Max_cycle;Signal;HPM_P1;HPM_P2
2023/06/03 00:00:43;;;;;;;5.15;2.22;;;14.90;99.90;;;;;;5034117;28;20021;-79
2023/06/03 00:03:13;;;;;;;5.32;2.50;;;14.90;99.90;;;;;;5016612;28;20032;-78
2023/06/03 00:05:39;;;;;;;11.43;2.78;;;14.80;99.90;;;;;;5034357;28;20028;-78
2023/06/03 00:08:05;;;;;;;3.80;2.67;;;14.80;99.90;;;;;;5016414;28;20034;-78
2023/06/03 00:10:30;;;;;;;8.80;4.75;;;14.80;99.90;;;;;;5016863;28;20435;-79
2023/06/03 00:12:56;;;;;;;9.30;3.15;;;14.80;99.90;;;;;;5034437;28;20018;-78
2023/06/03 00:15:22;;;;;;;7.15;3.17;;;14.70;99.90;;;;;;5034293;28;20029;-77
2023/06/03 00:17:47;;;;;;;6.82;3.08;;;14.70;99.90;;;;;;5016324;28;20031;-78
2023/06/03 00:20:14;;;;;;;5.68;2.63;;;14.70;99.90;;;;;;5016688;28;20025;-78
2023/06/03 00:22:40;;;;;;;7.45;2.72;;;14.70;99.90;;;;;;5033899;28;20022;-78
2023/06/03 00:25:07;;;;;;;9.43;3.20;;;14.70;99.90;;;;;;5033793;28;20031;-78
2023/06/03 00:27:36;;;;;;;9.70;3.08;;;14.70;99.90;;;;;;5033759;28;20025;-78
2023/06/03 00:30:03;;;;;;;8.35;2.58;;;14.70;99.90;;;;;;5033779;28;20076;-77
2023/06/03 00:32:29;;;;;;;5.32;2.45;;;14.70;99.90;;;;;;5034024;28;20025;-78
2023/06/03 00:34:55;;;;;;;9.05;2.30;;;14.70;99.90;;;;;;5015771;28;20029;-78
2023/06/03 00:37:20;;;;;;;5.07;2.70;;;14.80;99.90;;;;;;5015654;28;20033;-78
2023/06/03 00:39:46;;;;;;;5.70;3.03;;;14.80;99.90;;;;;;5033422;28;20022;-79
2023/06/03 00:42:11;;;;;;;6.25;2.50;;;14.90;99.90;;;;;;5016201;28;20029;-78
2023/06/03 00:44:37;;;;;;;5.72;3.05;;;14.90;99.90;;;;;;5033329;28;20063;-78
2023/06/03 00:47:03;;;;;;;4.38;2.53;;;14.90;99.90;;;;;;5015752;28;20025;-78
2023/06/03 00:49:30;;;;;;;6.05;3.25;;;14.90;99.90;;;;;;5033249;28;20092;-78
2023/06/03 00:51:56;;;;;;;5.05;2.50;;;14.80;99.90;;;;;;5033425;28;20033;-77
2023/06/03 00:54:22;;;;;;;5.35;2.50;;;15.00;99.90;;;;;;5015929;28;20025;-78
2023/06/03 00:56:48;;;;;;;5.03;2.58;;;15.00;99.90;;;;;;5015677;28;20041;-78
2023/06/03 00:59:16;;;;;;;5.03;2.40;;;15.00;99.90;;;;;;5015474;28;20028;-78
2023/06/03 01:01:42;;;;;;;4.20;2.13;;;15.00;99.90;;;;;;5015432;28;20120;-78
2023/06/03 01:04:17;;;;;;;5.20;3.00;;;15.00;99.90;;;;;;5015441;28;20183;-78
2023/06/03 01:07:06;;;;;;;3.85;2.42;;;15.00;97.70;;;;;;5015678;28;20036;-78
2023/06/03 01:09:44;;;;;;;5.00;2.67;;;15.00;97.80;;;;;;5015288;28;20033;-78
2023/06/03 01:12:19;;;;;;;3.55;2.55;;;15.00;97.70;;;;;;5014525;28;20025;-79
2023/06/03 01:15:07;;;;;;;10.35;2.15;;;15.00;98.80;;;;;;5032962;28;20036;-79
2023/06/03 01:17:39;;;;;;;4.15;2.30;;;14.90;98.10;;;;;;5014729;28;20103;-79
2023/06/03 01:20:09;;;;;;;7.18;2.97;;;14.90;98.70;;;;;;5015204;28;20029;-79
2023/06/03 01:22:41;;;;;;;5.50;2.80;;;14.90;97.90;;;;;;5032969;28;20030;-78
2023/06/03 01:25:09;;;;;;;4.15;2.03;;;14.90;99.10;;;;;;5015168;28;20129;-80
2023/06/03 01:27:36;;;;;;;6.90;2.30;;;14.80;98.10;;;;;;5032971;28;20060;-78
2023/06/03 01:30:04;;;;;;;3.20;2.15;;;14.80;98.60;;;;;;5015706;28;20116;-78
2023/06/03 01:32:30;;;;;;;4.13;2.70;;;14.70;98.20;;;;;;5033016;28;20387;-78
2023/06/03 01:34:56;;;;;;;4.00;2.00;;;14.70;97.40;;;;;;5015340;28;20116;-78
2023/06/03 01:37:22;;;;;;;4.68;3.15;;;14.70;98.60;;;;;;5015386;28;20179;-78
2023/06/03 01:39:48;;;;;;;3.25;2.53;;;14.70;98.80;;;;;;5032913;28;20022;-79
2023/06/03 01:42:14;;;;;;;3.90;2.00;;;14.60;98.20;;;;;;5032847;28;20033;-78
2023/06/03 01:44:40;;;;;;;4.47;2.95;;;14.60;98.20;;;;;;5014934;28;20036;-78
2023/06/03 01:47:07;;;;;;;4.13;2.15;;;14.50;99.20;;;;;;5032784;28;20033;-78
2023/06/03 01:49:33;;;;;;;7.65;2.47;;;14.50;97.60;;;;;;5032745;28;20105;-78
2023/06/03 01:52:00;;;;;;;8.20;2.40;;;14.60;97.70;;;;;;5015156;28;20071;-78
2023/06/03 01:54:26;;;;;;;3.20;2.35;;;14.50;98.70;;;;;;5032794;28;20036;-79
2023/06/03 01:56:56;;;;;;;2.90;2.42;;;14.50;99.60;;;;;;5014977;28;20026;-78
2023/06/03 01:59:24;;;;;;;5.63;2.92;;;14.40;99.90;;;;;;5015180;28;20513;-78
2023/06/03 02:01:54;;;;;;;7.90;3.20;;;14.30;99.70;;;;;;5014939;28;20544;-78
2023/06/03 02:04:20;;;;;;;5.30;2.30;;;14.30;98.40;;;;;;5014999;28;20508;-79
2023/06/03 02:06:55;;;;;;;7.10;2.00;;;14.40;98.10;;;;;;5032575;28;20021;-78
2023/06/03 02:09:22;;;;;;;4.07;2.30;;;14.40;97.50;;;;;;5014841;28;20078;-77
2023/06/03 02:11:48;;;;;;;7.30;3.05;;;14.40;97.60;;;;;;5015247;28;20125;-78
2023/06/03 02:14:14;;;;;;;4.65;2.65;;;14.30;97.70;;;;;;5015146;28;20116;-77
2023/06/03 02:16:40;;;;;;;4.75;2.58;;;14.30;99.90;;;;;;5014630;28;20065;-77
2023/06/03 02:19:15;;;;;;;4.63;2.22;;;14.20;99.90;;;;;;5032278;28;20017;-78
2023/06/03 02:21:44;;;;;;;4.95;2.75;;;14.10;99.30;;;;;;5014842;28;20029;-77
2023/06/03 02:24:11;;;;;;;6.85;2.97;;;14.10;99.80;;;;;;5036330;28;20433;-78
2023/06/03 02:26:48;;;;;;;6.10;2.75;;;14.00;99.90;;;;;;5018283;28;20039;-77
2023/06/03 02:29:14;;;;;;;4.22;2.15;;;14.00;99.90;;;;;;5036268;28;20541;-77
2023/06/03 02:31:39;;;;;;;3.25;2.17;;;14.00;99.90;;;;;;5018594;28;20117;-77
2023/06/03 02:34:05;;;;;;;3.90;2.40;;;14.00;99.90;;;;;;5036319;28;20021;-77
2023/06/03 02:36:31;;;;;;;4.10;2.10;;;13.90;99.90;;;;;;5036628;28;20104;-77
2023/06/03 02:38:56;;;;;;;4.28;2.65;;;13.80;99.90;;;;;;5018290;28;20030;-77
2023/06/03 02:41:22;;;;;;;7.00;2.22;;;13.70;99.90;;;;;;5018431;28;20052;-77
2023/06/03 02:43:47;;;;;;;5.35;2.55;;;13.50;99.90;;;;;;5018510;28;20022;-77
2023/06/03 02:46:13;;;;;;;4.78;2.40;;;13.40;99.90;;;;;;5018252;28;20041;-78
2023/06/03 02:48:39;;;;;;;5.05;2.30;;;13.40;99.90;;;;;;5018087;28;20027;-77
2023/06/03 02:51:05;;;;;;;5.20;3.20;;;13.30;99.90;;;;;;5036133;28;20017;-78
2023/06/03 02:53:31;;;;;;;4.25;2.78;;;13.20;99.90;;;;;;5018295;28;20500;-78
2023/06/03 02:55:57;;;;;;;6.40;2.55;;;13.20;99.90;;;;;;5018168;28;20041;-77
2023/06/03 02:58:22;;;;;;;2.63;2.42;;;13.20;99.90;;;;;;5017976;28;20126;-77
2023/06/03 03:00:48;;;;;;;5.20;2.78;;;13.10;99.90;;;;;;5035704;28;20034;-77
2023/06/03 03:03:14;;;;;;;3.85;2.35;;;13.00;99.90;;;;;;5018128;28;20029;-77
2023/06/03 03:05:40;;;;;;;4.32;2.28;;;13.00;99.90;;;;;;5017914;28;20030;-78
2023/06/03 03:08:06;;;;;;;4.20;2.08;;;13.20;99.90;;;;;;5018004;28;20033;-78
2023/06/03 03:10:31;;;;;;;4.45;2.50;;;13.40;99.90;;;;;;5018512;28;20030;-77
2023/06/03 03:12:57;;;;;;;4.95;2.17;;;13.60;99.90;;;;;;5036038;28;20104;-77
2023/06/03 03:15:23;;;;;;;4.95;2.65;;;13.70;99.90;;;;;;5035441;28;20036;-77
2023/06/03 03:17:48;;;;;;;5.93;2.70;;;13.80;99.90;;;;;;5017237;28;20029;-77
2023/06/03 03:20:14;;;;;;;6.90;2.40;;;13.90;99.90;;;;;;5035490;28;20026;-77
2023/06/03 03:22:42;;;;;;;2.60;2.17;;;14.00;98.70;;;;;;5035376;28;20021;-77
2023/06/03 03:25:08;;;;;;;5.00;2.67;;;14.20;97.90;;;;;;5017563;28;20433;-77
2023/06/03 03:27:34;;;;;;;3.58;1.80;;;14.20;99.90;;;;;;5035236;28;20045;-77
2023/06/03 03:30:02;;;;;;;3.17;2.33;;;14.20;98.50;;;;;;5017426;28;20102;-77
2023/06/03 03:32:28;;;;;;;4.53;2.22;;;14.20;99.30;;;;;;5017581;28;20025;-77
2023/06/03 03:35:13;;;;;;;3.72;2.35;;;14.20;99.90;;;;;;5016488;28;20389;-77
2023/06/03 03:37:39;;;;;;;3.50;1.90;;;14.30;99.90;;;;;;5017333;28;20044;-77
2023/06/03 03:40:20;;;;;;;6.68;2.47;;;14.30;99.90;;;;;;5035104;28;20036;-77
2023/06/03 03:42:51;;;;;;;3.40;1.75;;;14.30;99.90;;;;;;5017182;28;20116;-78
2023/06/03 03:45:22;;;;;;;6.20;2.22;;;14.30;99.90;;;;;;5016932;28;20128;-77
2023/06/03 03:47:50;;;;;;;4.32;2.05;;;14.30;99.90;;;;;;5016900;28;20025;-78
2023/06/03 03:50:46;;;;;;;3.78;2.17;;;14.30;99.90;;;;;;5017333;28;20134;-78
2023/06/03 03:53:22;;;;;;;2.30;1.80;;;14.40;99.90;;;;;;5017334;28;20024;-78
2023/06/03 03:55:50;;;;;;;3.75;2.30;;;14.40;99.80;;;;;;5034659;28;20395;-78
2023/06/03 03:58:39;;;;;;;2.28;1.80;;;14.50;98.80;;;;;;5016781;28;20021;-78
2023/06/03 04:01:12;;;;;;;5.32;2.50;;;14.60;96.10;;;;;;5034759;28;20021;-77
2023/06/03 04:03:42;;;;;;;2.95;2.53;;;14.50;99.90;;;;;;5017025;28;20074;-77
2023/06/03 04:06:09;;;;;;;2.15;1.80;;;14.40;97.60;;;;;;5016645;28;20032;-78
2023/06/03 04:08:39;;;;;;;2.40;1.92;;;14.40;99.90;;;;;;5016687;28;20440;-77
2023/06/03 04:11:27;;;;;;;4.45;2.50;;;14.40;97.20;;;;;;5016813;28;20025;-77
2023/06/03 04:13:55;;;;;;;1.85;1.67;;;14.50;95.80;;;;;;5016654;28;20029;-77
2023/06/03 04:16:48;;;;;;;6.43;1.70;;;14.50;96.00;;;;;;5033579;28;20029;-77
2023/06/03 04:19:18;;;;;;;3.10;1.50;;;15.50;97.70;;;;;;5016823;28;20056;-76
2023/06/03 04:21:45;;;;;;;3.60;1.95;;;15.20;93.70;;;;;;5037053;28;20033;-77
2023/06/03 04:24:11;;;;;;;1.60;1.50;;;15.10;94.10;;;;;;5033550;28;20100;-77
2023/06/03 04:26:37;;;;;;;2.70;1.58;;;14.90;94.40;;;;;;5020111;28;20045;-77
2023/06/03 04:29:03;;;;;;;5.97;2.80;;;14.70;97.80;;;;;;4998899;28;20080;-76
2023/06/03 04:31:28;;;;;;;6.35;1.80;;;14.60;99.90;;;;;;5016248;28;20033;-77
2023/06/03 04:33:54;;;;;;;4.03;1.98;;;14.60;99.90;;;;;;4998108;28;20018;-77
2023/06/03 04:36:20;;;;;;;2.78;2.30;;;14.60;99.90;;;;;;5016787;28;20037;-76
2023/06/03 04:38:46;;;;;;;2.67;2.13;;;14.60;99.90;;;;;;4999098;28;20093;-77
2023/06/03 04:41:14;;;;;;;2.65;2.40;;;14.70;99.90;;;;;;5018129;28;20034;-76
2023/06/03 04:43:40;;;;;;;3.40;2.72;;;14.70;99.90;;;;;;5026344;28;20029;-77
2023/06/03 04:46:09;;;;;;;4.65;1.95;;;14.70;99.90;;;;;;4997902;28;20030;-77
2023/06/03 04:48:36;;;;;;;3.45;2.25;;;14.60;99.90;;;;;;5014615;28;20075;-77
2023/06/03 04:51:07;;;;;;;2.72;1.80;;;14.70;99.90;;;;;;5014753;28;20026;-77
2023/06/03 04:53:33;;;;;;;2.40;1.90;;;14.70;99.90;;;;;;4996885;28;20028;-77
2023/06/03 04:56:02;;;;;;;3.55;2.03;;;14.60;99.90;;;;;;4997027;28;20515;-78
2023/06/03 04:58:28;;;;;;;3.50;1.98;;;14.60;99.90;;;;;;4997501;28;20030;-77
2023/06/03 05:00:53;;;;;;;3.72;1.75;;;14.70;99.90;;;;;;5015488;28;20478;-77
2023/06/03 05:03:19;;;;;;;4.00;1.92;;;14.60;99.90;;;;;;5006842;28;20026;-79
2023/06/03 05:05:44;;;;;;;2.47;2.13;;;14.60;99.90;;;;;;5036252;28;20041;-79
2023/06/03 05:08:10;;;;;;;5.38;2.13;;;14.60;99.90;;;;;;5019134;28;20114;-78
2023/06/03 05:10:37;;;;;;;4.03;1.92;;;14.60;99.90;;;;;;5017455;28;20025;-78
2023/06/03 05:13:03;;;;;;;3.10;2.00;;;14.70;99.90;;;;;;5018563;28;20036;-78
2023/06/03 05:15:29;;;;;;;3.50;1.63;;;14.60;99.90;;;;;;5002166;28;20037;-79
2023/06/03 05:17:55;;;;;;;4.35;1.92;;;14.60;99.90;;;;;;5017850;28;20380;-77
2023/06/03 05:20:20;;;;;;;3.03;2.10;;;14.60;99.90;;;;;;5023215;28;20032;-79
2023/06/03 05:22:46;;;;;;;4.93;2.67;;;14.70;99.90;;;;;;4999156;28;20034;-78
2023/06/03 05:25:12;;;;;;;3.97;2.42;;;14.80;99.90;;;;;;4997968;28;20026;-77
2023/06/03 05:27:38;;;;;;;3.40;2.45;;;14.90;99.60;;;;;;5015330;28;20029;-77
2023/06/03 05:30:04;;;;;;;2.88;2.00;;;14.90;99.90;;;;;;5014685;28;20104;-77
2023/06/03 05:32:29;;;;;;;2.97;1.80;;;14.90;99.90;;;;;;4996775;28;20447;-77
2023/06/03 05:34:55;;;;;;;4.88;1.85;;;15.10;99.90;;;;;;4996517;28;20068;-77
2023/06/03 05:37:22;;;;;;;3.40;1.85;;;15.30;99.40;;;;;;4996599;28;20061;-77
2023/06/03 05:39:47;;;;;;;2.53;1.90;;;15.40;99.20;;;;;;4996784;28;20030;-77
2023/06/03 05:42:13;;;;;;;2.63;1.73;;;15.30;99.90;;;;;;4996252;28;20022;-78
2023/06/03 05:44:38;;;;;;;1.95;1.60;;;15.30;97.70;;;;;;4998343;28;20127;-77
2023/06/03 05:47:04;;;;;;;6.45;1.38;;;15.20;95.90;;;;;;4996656;28;20026;-77
2023/06/03 05:49:30;;;;;;;2.55;1.85;;;15.10;96.80;;;;;;4996317;28;20061;-77
2023/06/03 05:51:55;;;;;;;2.00;1.75;;;15.10;95.10;;;;;;5015971;28;20030;-77
2023/06/03 05:54:21;;;;;;;3.22;1.73;;;15.20;96.20;;;;;;5015667;28;20022;-78
2023/06/03 05:56:47;;;;;;;5.65;2.58;;;15.30;95.50;;;;;;5015731;28;20022;-77
2023/06/03 05:59:12;;;;;;;2.97;1.88;;;15.20;95.20;;;;;;5000854;28;20025;-76
2023/06/03 06:01:38;;;;;;;3.75;1.23;;;15.30;95.70;;;;;;5010460;28;20079;-78
2023/06/03 06:04:07;;;;;;;4.00;1.60;;;15.30;95.80;;;;;;5017062;28;20025;-77
2023/06/03 06:06:32;;;;;;;2.08;1.33;;;15.50;97.50;;;;;;5021829;28;20036;-78
2023/06/03 06:08:58;;;;;;;3.38;1.67;;;15.60;97.30;;;;;;5021648;28;20030;-77
2023/06/03 06:11:23;;;;;;;5.07;1.70;;;15.60;96.90;;;;;;5039809;28;20079;-76
2023/06/03 06:13:49;;;;;;;1.38;1.27;;;15.70;95.70;;;;;;5020930;28;20021;-77
2023/06/03 06:16:15;;;;;;;1.67;1.20;;;15.70;95.60;;;;;;5020981;28;20511;-77
2023/06/03 06:18:40;;;;;;;2.60;1.65;;;15.60;93.00;;;;;;5039482;28;20445;-76
2023/06/03 06:21:06;;;;;;;2.30;1.90;;;15.60;93.00;;;;;;5041073;28;20485;-77
2023/06/03 06:23:32;;;;;;;3.72;2.05;;;15.60;93.10;;;;;;5022070;28;20040;-77
2023/06/03 06:25:57;;;;;;;2.05;1.50;;;15.60;94.90;;;;;;5021529;28;20048;-77
2023/06/03 06:28:29;;;;;;;1.70;1.60;;;15.80;93.60;;;;;;5021977;28;20071;-77
2023/06/03 06:30:55;;;;;;;4.40;1.67;;;15.80;93.50;;;;;;5039610;28;20033;-77
2023/06/03 06:33:22;;;;;;;3.97;1.77;;;15.80;93.80;;;;;;5021640;28;20022;-76
2023/06/03 06:35:47;;;;;;;1.25;1.10;;;15.80;93.50;;;;;;5039533;28;20397;-77
2023/06/03 06:38:14;;;;;;;3.33;1.10;;;15.70;92.70;;;;;;5021434;28;20026;-77
2023/06/03 06:40:40;;;;;;;2.08;1.60;;;15.90;93.40;;;;;;5023927;28;20116;-78
2023/06/03 06:43:08;;;;;;;2.22;1.45;;;15.80;93.20;;;;;;5022537;28;20029;-77
2023/06/03 06:45:35;;;;;;;4.13;1.85;;;15.90;92.90;;;;;;5023701;28;20025;-76
2023/06/03 06:48:06;;;;;;;5.03;1.67;;;16.00;92.40;;;;;;5022057;28;20029;-78
2023/06/03 06:50:55;;;;;;;2.45;2.00;;;17.30;99.90;;;;;;5019494;28;20029;-75
2023/06/03 06:53:22;;;;;;;3.92;1.60;;;18.00;92.70;;;;;;5038086;28;20398;-77
2023/06/03 06:55:50;;;;;;;2.95;1.58;;;17.90;90.70;;;;;;5037812;28;20108;-77
2023/06/03 06:58:17;;;;;;;2.42;1.48;;;17.90;91.10;;;;;;5020417;28;20022;-76
2023/06/03 07:00:43;;;;;;;5.22;1.60;;;18.20;90.30;;;;;;5038282;28;20025;-78
2023/06/03 07:03:11;;;;;;;3.45;1.48;;;18.40;86.40;;;;;;5020227;28;20746;-76
2023/06/03 07:05:37;;;;;;;4.60;1.95;;;18.50;90.10;;;;;;5019894;28;20040;-78
2023/06/03 07:08:02;;;;;;;2.72;1.33;;;18.70;87.10;;;;;;5019226;28;20033;-77
2023/06/03 07:10:28;;;;;;;3.10;1.40;;;18.70;85.00;;;;;;5018311;28;20048;-76
2023/06/03 07:12:55;;;;;;;3.47;2.03;;;18.50;84.10;;;;;;5019741;28;20043;-77
2023/06/03 07:15:22;;;;;;;2.25;1.55;;;18.60;86.10;;;;;;5020137;28;20021;-77
2023/06/03 07:17:55;;;;;;;3.30;1.80;;;18.20;85.20;;;;;;5038977;28;20065;-77
2023/06/03 07:20:33;;;;;;;2.45;1.90;;;17.90;85.30;;;;;;5022173;28;20493;-76
2023/06/03 07:22:59;;;;;;;4.88;1.52;;;17.80;85.00;;;;;;5040848;28;20049;-76
2023/06/03 07:25:34;;;;;;;2.20;1.60;;;17.70;87.10;;;;;;5023337;28;20555;-76
2023/06/03 07:28:02;;;;;;;2.58;1.27;;;17.40;88.20;;;;;;5022750;28;20022;-76
2023/06/03 07:30:28;;;;;;;2.55;1.42;;;17.20;90.10;;;;;;5040357;28;20437;-77
2023/06/03 07:32:58;;;;;;;2.00;1.52;;;17.00;87.50;;;;;;5023184;28;20021;-76
2023/06/03 07:35:24;;;;;;;2.17;1.42;;;17.10;88.10;;;;;;5023307;28;20025;-78
2023/06/03 07:37:50;;;;;;;5.18;1.65;;;17.00;90.10;;;;;;5021968;28;20076;-76
2023/06/03 07:40:16;;;;;;;2.97;1.52;;;17.10;89.30;;;;;;5023227;28;20029;-77
2023/06/03 07:42:47;;;;;;;1.92;1.65;;;17.20;89.10;;;;;;5039682;28;20564;-78
2023/06/03 07:45:14;;;;;;;3.38;1.65;;;17.20;85.70;;;;;;5040150;28;20493;-76
2023/06/03 07:47:43;;;;;;;1.48;1.38;;;17.40;88.50;;;;;;5038179;28;20511;-77
2023/06/03 07:50:23;;;;;;;3.10;1.58;;;17.40;85.10;;;;;;5021238;28;20029;-77
2023/06/03 07:53:02;;;;;;;1.92;1.13;;;17.40;85.70;;;;;;5039032;28;20029;-77
2023/06/03 07:56:00;;;;;;;1.20;1.10;;;17.40;86.30;;;;;;5023142;28;20030;-76
2023/06/03 07:58:27;;;;;;;5.50;1.40;;;17.20;85.00;;;;;;5016863;28;20040;-77
2023/06/03 08:00:53;;;;;;;1.50;1.25;;;17.30;86.00;;;;;;5022180;28;20029;-77
2023/06/03 08:03:22;;;;;;;3.10;1.48;;;17.40;85.20;;;;;;5040336;28;20083;-77
2023/06/03 08:05:50;;;;;;;7.00;1.20;;;17.60;86.80;;;;;;5023369;28;20062;-77
2023/06/03 08:08:18;;;;;;;4.25;1.88;;;17.70;86.70;;;;;;5020619;28;20065;-78
2023/06/03 08:10:47;;;;;;;1.50;1.10;;;17.70;84.60;;;;;;5021158;28;20026;-77
2023/06/03 08:13:15;;;;;;;2.08;1.15;;;17.80;85.10;;;;;;5040291;28;20022;-77
2023/06/03 08:15:40;;;;;;;1.80;1.20;;;17.90;83.90;;;;;;5021007;28;20021;-77
2023/06/03 08:18:07;;;;;;;2.08;1.40;;;17.70;83.70;;;;;;5039258;28;20440;-76
2023/06/03 08:20:34;;;;;;;4.63;2.10;;;17.80;84.50;;;;;;5020725;28;20405;-77
2023/06/03 08:23:00;;;;;;;3.78;1.63;;;17.90;85.70;;;;;;5021965;28;20029;-77
2023/06/03 08:25:26;;;;;;;3.13;1.83;;;17.90;84.80;;;;;;5022224;28;20096;-78
2023/06/03 08:27:52;;;;;;;2.80;1.45;;;17.90;84.20;;;;;;5039669;28;20067;-77
2023/06/03 08:30:20;;;;;;;2.78;1.42;;;17.80;84.10;;;;;;5020033;28;20021;-78
2023/06/03 08:32:46;;;;;;;6.38;1.27;;;17.80;86.20;;;;;;5039638;28;20101;-77
2023/06/03 08:35:13;;;;;;;3.00;2.00;;;17.80;85.90;;;;;;5021685;28;20041;-77
2023/06/03 08:37:39;;;;;;;4.30;1.10;;;17.90;85.50;;;;;;5022494;28;20049;-76
2023/06/03 08:40:08;;;;;;;4.53;2.25;;;18.00;87.10;;;;;;5039257;28;20021;-77
2023/06/03 08:42:42;;;;;;;5.93;2.65;;;18.00;84.90;;;;;;5020718;28;20025;-77
2023/06/03 08:45:12;;;;;;;4.53;1.40;;;18.00;83.50;;;;;;5037474;28;20396;-77
2023/06/03 08:48:05;;;;;;;4.05;1.80;;;17.90;83.10;;;;;;5020163;28;20025;-78
2023/06/03 08:50:33;;;;;;;1.92;1.35;;;18.00;83.20;;;;;;5019929;28;20029;-77
2023/06/03 08:53:03;;;;;;;5.53;1.48;;;18.10;85.10;;;;;;5039490;28;20310;-76
2023/06/03 08:55:30;;;;;;;3.80;1.63;;;18.30;83.80;;;;;;5019783;28;20028;-76
2023/06/03 08:58:26;;;;;;;1.48;1.35;;;18.40;83.00;;;;;;5037817;28;20081;-77
2023/06/03 09:00:57;;;;;;;2.20;1.40;;;18.60;82.60;;;;;;5020575;28;20025;-76
2023/06/03 09:03:23;;;;;;;2.13;1.90;;;18.70;82.40;;;;;;5038244;28;20034;-76
2023/06/03 09:05:49;;;;;;;2.40;1.67;;;18.80;81.30;;;;;;5037522;28;20028;-77
2023/06/03 09:08:17;;;;;;;1.67;1.23;;;18.70;80.70;;;;;;5036532;28;20041;-77
2023/06/03 09:10:45;;;;;;;1.58;1.42;;;18.60;81.60;;;;;;5036870;28;20030;-77
2023/06/03 09:13:13;;;;;;;3.92;1.73;;;18.70;81.70;;;;;;5037123;28;20030;-77
2023/06/03 09:15:42;;;;;;;2.58;1.67;;;18.80;81.60;;;;;;5036606;28;20021;-76
2023/06/03 09:18:08;;;;;;;2.03;1.70;;;19.00;80.80;;;;;;5019764;28;20025;-78
2023/06/03 09:20:35;;;;;;;2.35;1.73;;;19.10;81.80;;;;;;5048657;28;20033;-77
2023/06/03 09:23:01;;;;;;;2.30;1.88;;;19.10;82.20;;;;;;5032989;28;20032;-78
2023/06/03 09:25:27;;;;;;;4.93;2.20;;;19.00;82.80;;;;;;5037608;28;20022;-77
2023/06/03 09:27:53;;;;;;;3.22;1.73;;;19.00;82.30;;;;;;5018920;28;20025;-77
2023/06/03 09:30:19;;;;;;;2.60;1.85;;;18.90;81.00;;;;;;5019529;28;20024;-78
2023/06/03 09:32:45;;;;;;;4.05;2.35;;;18.90;81.50;;;;;;5017091;28;20017;-79
2023/06/03 09:35:11;;;;;;;3.53;2.20;;;18.80;83.20;;;;;;5018193;28;20092;-78
2023/06/03 09:37:37;;;;;;;10.25;2.25;;;18.90;82.40;;;;;;5053781;28;20026;-79
2023/06/03 09:40:04;;;;;;;5.35;2.42;;;18.80;82.10;;;;;;5054056;28;20036;-78
2023/06/03 09:42:45;;;;;;;3.85;2.28;;;19.00;81.50;;;;;;5036874;28;20014;-78
2023/06/03 09:45:26;;;;;;;3.00;2.33;;;18.90;80.60;;;;;;5054712;28;20112;-77
2023/06/03 09:47:52;;;;;;;5.45;2.10;;;18.90;80.90;;;;;;5055104;28;20037;-78
2023/06/03 09:50:19;;;;;;;4.35;2.20;;;18.70;81.20;;;;;;5039144;28;20030;-78
2023/06/03 09:52:45;;;;;;;2.88;2.17;;;18.50;81.20;;;;;;5056814;28;20025;-78
2023/06/03 09:55:12;;;;;;;2.95;2.20;;;18.60;81.90;;;;;;5039623;28;20036;-78
2023/06/03 09:57:38;;;;;;;4.78;2.72;;;18.80;83.70;;;;;;5038914;28;20396;-79
2023/06/03 10:00:09;;;;;;;2.83;1.92;;;19.00;84.70;;;;;;5039942;28;20009;-77
2023/06/03 10:02:40;;;;;;;4.78;2.25;;;19.10;83.80;;;;;;5023162;28;20117;-76
2023/06/03 10:05:25;;;;;;;2.67;2.20;;;18.70;83.10;;;;;;5019661;28;20481;-77
2023/06/03 10:07:51;;;;;;;2.72;2.15;;;18.80;84.20;;;;;;5037126;28;20058;-77
2023/06/03 10:10:17;;;;;;;2.25;1.92;;;18.90;83.50;;;;;;5018409;28;20148;-76
2023/06/03 10:12:44;;;;;;;3.13;1.80;;;18.90;83.20;;;;;;5018080;28;20116;-77
2023/06/03 10:15:10;;;;;;;3.20;1.70;;;19.00;83.40;;;;;;5018311;28;20057;-77
2023/06/03 10:17:44;;;;;;;7.55;1.95;;;19.20;83.70;;;;;;5018127;28;20033;-76
2023/06/03 10:20:10;;;;;;;2.10;1.90;;;19.30;83.60;;;;;;5018568;28;20014;-77
2023/06/03 10:22:38;;;;;;;3.22;2.00;;;19.70;85.20;;;;;;5018374;28;20022;-77
2023/06/03 10:25:06;;;;;;;5.05;1.80;;;20.00;84.90;;;;;;5018356;28;20029;-76
2023/06/03 10:27:32;;;;;;;3.20;1.50;;;20.10;80.70;;;;;;5018489;28;20018;-76
2023/06/03 10:29:59;;;;;;;2.63;1.92;;;20.10;78.90;;;;;;5018212;28;20025;-77
2023/06/03 10:32:26;;;;;;;2.60;2.30;;;20.00;79.40;;;;;;5018115;28;20017;-77
2023/06/03 10:34:53;;;;;;;3.58;1.42;;;20.10;80.60;;;;;;5035620;28;20036;-77
2023/06/03 10:37:22;;;;;;;3.38;1.77;;;20.00;81.10;;;;;;5018540;28;20100;-77
2023/06/03 10:39:49;;;;;;;2.05;1.77;;;20.20;78.70;;;;;;5018804;28;20052;-76
2023/06/03 10:42:14;;;;;;;3.03;1.80;;;20.20;81.70;;;;;;5036444;28;20022;-76
2023/06/03 10:44:40;;;;;;;2.47;1.70;;;20.30;81.70;;;;;;5039069;28;20119;-77
2023/06/03 10:47:21;;;;;;;3.95;2.08;;;20.80;76.70;;;;;;5022205;28;20493;-77
2023/06/03 10:49:55;;;;;;;2.83;1.90;;;20.90;76.70;;;;;;5022113;28;20021;-77
2023/06/03 10:52:48;;;;;;;6.37;1.90;;;21.00;78.20;;;;;;5022901;28;20052;-76
2023/06/03 10:55:42;;;;;;;2.25;2.05;;;20.70;78.30;;;;;;5022734;28;20107;-77
2023/06/03 10:58:14;;;;;;;2.22;1.85;;;20.90;75.70;;;;;;5041068;28;20076;-77
2023/06/03 11:00:58;;;;;;;3.75;1.80;;;21.40;72.90;;;;;;5023116;28;20109;-76
2023/06/03 11:03:31;;;;;;;4.65;1.75;;;21.30;71.70;;;;;;5040102;28;20044;-76
2023/06/03 11:06:21;;;;;;;2.95;1.67;;;20.80;71.60;;;;;;5022631;28;20037;-76
2023/06/03 11:08:57;;;;;;;4.65;2.28;;;21.00;73.00;;;;;;5021739;28;20025;-77
2023/06/03 11:11:41;;;;;;;6.43;1.80;;;21.20;72.80;;;;;;5022084;28;20025;-77
2023/06/03 11:14:07;;;;;;;2.45;1.60;;;21.30;73.30;;;;;;5021428;28;20032;-76
2023/06/03 11:16:58;;;;;;;3.60;1.98;;;21.50;72.20;;;;;;5040754;28;20032;-76
2023/06/03 11:19:28;;;;;;;3.72;2.08;;;21.70;70.70;;;;;;5022974;28;20060;-76
2023/06/03 11:21:54;;;;;;;3.20;1.83;;;21.80;69.10;;;;;;5040127;28;20021;-76
2023/06/03 11:24:38;;;;;;;2.28;1.80;;;21.30;70.30;;;;;;5021599;28;20092;-76
2023/06/03 11:27:10;;;;;;;2.47;1.90;;;21.30;68.80;;;;;;5039984;28;20029;-77
2023/06/03 11:29:57;;;;;;;3.53;1.55;;;21.40;70.00;;;;;;5021874;28;20025;-76
2023/06/03 11:32:30;;;;;;;2.58;1.98;;;21.50;70.70;;;;;;5038254;28;20025;-75
2023/06/03 11:35:26;;;;;;;3.05;1.92;;;21.60;71.00;;;;;;5038379;28;20032;-76
2023/06/03 11:37:52;;;;;;;2.13;1.92;;;21.60;71.30;;;;;;5030579;28;20040;-76
2023/06/03 11:40:20;;;;;;;3.28;1.70;;;21.50;66.90;;;;;;5021204;28;20025;-76
2023/06/03 11:42:55;;;;;;;7.13;2.05;;;21.50;66.30;;;;;;5020970;28;20116;-77
2023/06/03 11:45:28;;;;;;;2.88;2.17;;;21.50;68.10;;;;;;5038402;28;20547;-77
2023/06/03 11:47:56;;;;;;;4.15;1.90;;;21.40;66.70;;;;;;5038405;28;20018;-76
2023/06/03 11:50:32;;;;;;;2.28;1.80;;;21.30;69.20;;;;;;5039982;28;20017;-76
2023/06/03 11:52:58;;;;;;;1.73;1.50;;;21.40;70.40;;;;;;5039939;28;20082;-77
2023/06/03 11:55:28;;;;;;;5.90;2.10;;;21.70;71.30;;;;;;5038328;28;20025;-76
2023/06/03 11:58:00;;;;;;;2.08;1.88;;;21.90;71.00;;;;;;5038418;28;20030;-76
2023/06/03 12:00:26;;;;;;;4.47;2.33;;;21.80;70.00;;;;;;5039515;28;20021;-76
2023/06/03 12:02:53;;;;;;;2.03;1.77;;;21.70;71.40;;;;;;5038693;28;20500;-76
2023/06/03 12:05:19;;;;;;;3.97;2.00;;;21.50;68.70;;;;;;5021631;28;20034;-77
2023/06/03 12:07:56;;;;;;;3.42;2.00;;;21.70;71.80;;;;;;5037443;28;20029;-76
2023/06/03 12:10:22;;;;;;;2.63;1.83;;;21.90;69.80;;;;;;5036242;28;20044;-77
2023/06/03 12:12:51;;;;;;;2.67;2.20;;;21.80;70.50;;;;;;5018654;28;20049;-76
2023/06/03 12:15:18;;;;;;;2.78;1.63;;;21.40;71.60;;;;;;5038644;28;20481;-76
2023/06/03 12:17:43;;;;;;;3.05;1.88;;;21.20;73.60;;;;;;5037657;28;20033;-77
2023/06/03 12:20:11;;;;;;;5.32;2.22;;;21.20;71.60;;;;;;5038459;28;20059;-77
2023/06/03 12:22:37;;;;;;;4.60;2.58;;;21.20;74.80;;;;;;5020468;28;20025;-75
2023/06/03 12:25:03;;;;;;;2.85;2.15;;;21.10;75.40;;;;;;5020416;28;20056;-76
2023/06/03 12:27:29;;;;;;;3.33;2.47;;;21.10;75.40;;;;;;5021298;28;20108;-76
2023/06/03 12:29:57;;;;;;;4.25;2.20;;;21.30;74.30;;;;;;5038560;28;20546;-76
2023/06/03 12:32:25;;;;;;;4.10;2.47;;;21.30;75.50;;;;;;5020631;28;20030;-76
2023/06/03 12:34:51;;;;;;;4.53;2.33;;;21.30;76.80;;;;;;5038114;28;20477;-76
2023/06/03 12:37:30;;;;;;;2.70;2.50;;;21.30;75.40;;;;;;5035769;28;20033;-77
2023/06/03 12:39:57;;;;;;;3.45;2.20;;;21.40;79.50;;;;;;5031724;28;20083;-77
2023/06/03 12:42:37;;;;;;;6.15;2.58;;;21.50;75.80;;;;;;5001015;28;20045;-76
2023/06/03 12:45:03;;;;;;;5.53;2.13;;;21.70;74.90;;;;;;4998086;28;20053;-76
2023/06/03 12:47:40;;;;;;;4.05;2.20;;;21.70;74.50;;;;;;4999118;28;20383;-76
2023/06/03 12:50:08;;;;;;;11.38;2.10;;;21.80;72.40;;;;;;4995338;28;20026;-81
2023/06/03 12:52:36;;;;;;;2.65;1.77;;;21.90;74.50;;;;;;4996134;28;20121;-82
2023/06/03 12:55:04;;;;;;;5.72;2.40;;;21.90;72.50;;;;;;4998602;28;20037;-77